createdAt,value
2019-03-02T00:00:06.119Z,14.4
2019-03-02T00:00:49.371Z,14.4
2019-03-02T00:01:40.236Z,14.4
2019-03-02T00:02:32.829Z,14.4
2019-03-02T00:03:19.831Z,14.4
2019-03-02T00:04:17.372Z,14.4
2019-03-02T00:04:59.864Z,14.4
2019-03-02T00:05:49.727Z,14.3
2019-03-02T00:06:42.996Z,14.3
2019-03-02T00:07:30.381Z,14.4
2019-03-02T00:08:26.129Z,14.4
2019-03-02T00:09:10.484Z,14.4
2019-03-02T00:09:59.949Z,14.4
2019-03-02T00:10:53.524Z,14.4
2019-03-02T00:11:40.122Z,14.4
2019-03-02T00:12:37.839Z,14.4
2019-03-02T00:13:20.184Z,14.4
2019-03-02T00:14:10.525Z,14.4
2019-03-02T00:15:01.970Z,14.4
2019-03-02T00:15:50.354Z,14.4
2019-03-02T00:16:47.810Z,14.4
2019-03-02T00:17:29.936Z,14.4
2019-03-02T00:18:19.999Z,14.4
2019-03-02T00:19:15.851Z,14.4
2019-03-02T00:20:01.336Z,14.4
2019-03-02T00:21:00.535Z,14.4
2019-03-02T00:21:41.616Z,14.4
2019-03-02T00:22:31.523Z,14.4
2019-03-02T00:23:27.028Z,14.4
2019-03-02T00:24:11.590Z,14.4
2019-03-02T00:25:06.130Z,14.4
2019-03-02T00:25:51.998Z,14.4
2019-03-02T00:26:48.778Z,14.4
2019-03-02T00:27:31.799Z,14.3
2019-03-02T00:28:22.357Z,14.3
2019-03-02T00:29:18.262Z,14.3
2019-03-02T00:30:02.034Z,14.3
2019-03-02T00:30:57.762Z,14.3
2019-03-02T00:31:41.785Z,14.3
2019-03-02T00:32:35.331Z,14.3
2019-03-02T00:33:28.652Z,14.3
2019-03-02T00:34:12.419Z,14.3
2019-03-02T00:35:08.958Z,14.3
2019-03-02T00:35:53.381Z,14.3
2019-03-02T00:36:42.436Z,14.3
2019-03-02T00:37:39.283Z,14.3
2019-03-02T00:38:22.245Z,14.3
2019-03-02T00:39:19.051Z,14.3
2019-03-02T00:40:05.380Z,14.3
2019-03-02T00:40:52.463Z,14.3
2019-03-02T00:41:49.002Z,14.3
2019-03-02T00:42:32.294Z,14.3
2019-03-02T00:43:28.569Z,14.3
2019-03-02T00:44:12.752Z,14.3
2019-03-02T00:45:02.699Z,14.4
2019-03-02T00:45:58.405Z,14.3
2019-03-02T00:46:43.207Z,14.3
2019-03-02T00:47:40.665Z,14.3
2019-03-02T00:48:23.557Z,14.3
2019-03-02T00:49:13.016Z,14.3
2019-03-02T00:50:09.929Z,14.3
2019-03-02T00:50:53.969Z,14.3
2019-03-02T00:51:51.717Z,14.3
2019-03-02T00:52:34.066Z,14.3
2019-03-02T00:53:23.882Z,14.3
2019-03-02T00:54:19.991Z,14.3
2019-03-02T00:55:06.118Z,14.3
2019-03-02T00:55:52.907Z,14.3
2019-03-02T00:56:49.179Z,14.3
2019-03-02T00:57:33.561Z,14.3
2019-03-02T00:58:29.877Z,14.3
2019-03-02T00:59:13.146Z,14.3
2019-03-02T01:00:04.353Z,14.3
2019-03-02T01:01:01.509Z,14.3
2019-03-02T01:01:43.356Z,14.3
2019-03-02T01:02:36.719Z,14.3
2019-03-02T01:03:24.489Z,14.3
2019-03-02T01:04:13.835Z,14.3
2019-03-02T01:05:10.238Z,14.3
2019-03-02T01:05:53.646Z,14.3
2019-03-02T01:06:51.045Z,14.3
2019-03-02T01:07:34.612Z,14.3
2019-03-02T01:08:24.378Z,14.3
2019-03-02T01:09:20.405Z,14.3
2019-03-02T01:10:27.296Z,14.3
2019-03-02T01:11:00.532Z,14.3
2019-03-02T01:11:44.043Z,14.3
2019-03-02T01:12:34.638Z,14.3
2019-03-02T01:13:30.760Z,14.3
2019-03-02T01:14:14.455Z,14.3
2019-03-02T01:15:11.453Z,14.3
2019-03-02T01:15:54.635Z,14.3
2019-03-02T01:16:44.645Z,14.3
2019-03-02T01:17:38.935Z,14.3
2019-03-02T01:18:27.112Z,14.3
2019-03-02T01:19:20.944Z,14.3
2019-03-02T01:20:04.927Z,14.3
2019-03-02T01:20:55.872Z,14.3
2019-03-02T01:21:49.957Z,14.3
2019-03-02T01:22:34.839Z,14.3
2019-03-02T01:23:33.202Z,14.3
2019-03-02T01:24:15.430Z,14.3
2019-03-02T01:25:05.797Z,14.3
2019-03-02T01:25:57.193Z,14.2
2019-03-02T01:26:45.339Z,14.3
2019-03-02T01:27:42.185Z,14.2
2019-03-02T01:28:26.032Z,14.3
2019-03-02T01:29:23.619Z,14.2
2019-03-02T01:30:06.479Z,14.2
2019-03-02T01:30:56.182Z,14.3
2019-03-02T01:31:48.616Z,14.2
2019-03-02T01:32:36.044Z,14.2
2019-03-02T01:33:33.124Z,14.2
2019-03-02T01:34:17.051Z,14.2
2019-03-02T01:35:05.831Z,14.2
2019-03-02T01:36:02.534Z,14.2
2019-03-02T01:36:48.146Z,14.2
2019-03-02T01:37:43.617Z,14.2
2019-03-02T01:38:25.731Z,14.2
2019-03-02T01:39:16.042Z,14.3
2019-03-02T01:40:12.353Z,14.3
2019-03-02T01:40:56.711Z,14.3
2019-03-02T01:41:46.399Z,14.3
2019-03-02T01:42:37.701Z,14.3
2019-03-02T01:43:27.714Z,14.3
2019-03-02T01:44:23.690Z,14.3
2019-03-02T01:45:07.984Z,14.3
2019-03-02T01:45:59.699Z,14.2
2019-03-02T01:46:49.320Z,14.2
2019-03-02T01:47:36.881Z,14.2
2019-03-02T01:48:34.821Z,14.2
2019-03-02T01:49:17.513Z,14.2
2019-03-02T01:50:13.746Z,14.2
2019-03-02T01:50:56.491Z,14.2
2019-03-02T01:51:46.826Z,14.2
2019-03-02T01:52:42.143Z,14.2
2019-03-02T01:53:26.726Z,14.2
2019-03-02T01:54:24.233Z,14.2
2019-03-02T01:55:07.656Z,14.3
2019-03-02T01:55:57.683Z,14.3
2019-03-02T01:56:49.753Z,14.2
2019-03-02T01:57:38.770Z,14.2
2019-03-02T01:58:35.290Z,14.2
2019-03-02T01:59:18.275Z,14.2
2019-03-02T02:00:14.562Z,14.2
2019-03-02T02:00:58.058Z,14.2
2019-03-02T02:01:48.962Z,14.3
2019-03-02T02:02:43.870Z,14.3
2019-03-02T02:03:28.598Z,14.3
2019-03-02T02:04:25.788Z,14.3
2019-03-02T02:05:08.643Z,14.3
2019-03-02T02:05:58.665Z,14.3
2019-03-02T02:06:51.940Z,14.3
2019-03-02T02:07:38.782Z,14.2
2019-03-02T02:08:34.582Z,14.3
2019-03-02T02:09:18.602Z,14.3
2019-03-02T02:10:08.672Z,14.3
2019-03-02T02:10:57.655Z,14.3
2019-03-02T02:11:55.719Z,14.3
2019-03-02T02:12:39.137Z,14.3
2019-03-02T02:13:29.205Z,14.3
2019-03-02T02:14:25.830Z,14.3
2019-03-02T02:15:09.093Z,14.3
2019-03-02T02:16:06.819Z,14.3
2019-03-02T02:16:50.992Z,14.3
2019-03-02T02:17:38.647Z,14.3
2019-03-02T02:18:35.635Z,14.3
2019-03-02T02:19:19.352Z,14.3
2019-03-02T02:20:16.039Z,14.3
2019-03-02T02:21:00.067Z,14.3
2019-03-02T02:21:48.704Z,14.3
2019-03-02T02:22:46.415Z,14.3
2019-03-02T02:23:29.721Z,14.3
2019-03-02T02:24:26.328Z,14.3
2019-03-02T02:25:10.174Z,14.3
2019-03-02T02:25:59.291Z,14.3
2019-03-02T02:26:54.364Z,14.3
2019-03-02T02:27:39.646Z,14.3
2019-03-02T02:28:36.127Z,14.3
2019-03-02T02:29:19.775Z,14.3
2019-03-02T02:30:10.275Z,14.3
2019-03-02T02:31:11.871Z,14.3
2019-03-02T02:31:54.966Z,14.2
2019-03-02T02:32:40.354Z,14.2
2019-03-02T02:33:30.175Z,14.2
2019-03-02T02:34:31.389Z,14.3
2019-03-02T02:35:11.823Z,14.3
2019-03-02T02:36:00.581Z,14.2
2019-03-02T02:37:02.024Z,14.2
2019-03-02T02:37:46.459Z,14.2
2019-03-02T02:38:30.794Z,14.3
2019-03-02T02:39:21.403Z,14.3
2019-03-02T02:40:20.693Z,14.3
2019-03-02T02:41:00.149Z,14.3
2019-03-02T02:41:50.495Z,14.3
2019-03-02T02:42:50.207Z,14.3
2019-03-02T02:43:30.366Z,14.3
2019-03-02T02:44:21.606Z,14.3
2019-03-02T02:45:21.068Z,14.3
2019-03-02T02:46:03.249Z,14.3
2019-03-02T02:46:51.694Z,14.3
2019-03-02T02:47:41.107Z,14.3
2019-03-02T02:48:40.120Z,14.3
2019-03-02T02:49:21.815Z,14.3
2019-03-02T02:50:11.943Z,14.3
2019-03-02T02:51:13.715Z,14.3
2019-03-02T02:51:58.282Z,14.3
2019-03-02T02:52:41.270Z,14.3
2019-03-02T02:53:31.543Z,14.3
2019-03-02T02:54:31.401Z,14.3
2019-03-02T02:55:12.554Z,14.3
2019-03-02T02:56:02.272Z,14.2
2019-03-02T02:57:02.343Z,14.2
2019-03-02T02:57:47.557Z,14.3
2019-03-02T02:58:32.731Z,14.3
2019-03-02T02:59:22.547Z,14.3
2019-03-02T03:00:22.139Z,14.3
2019-03-02T03:01:05.178Z,14.2
2019-03-02T03:01:52.258Z,14.3
2019-03-02T03:02:41.973Z,14.2
2019-03-02T03:03:32.530Z,14.3
2019-03-02T03:04:22.590Z,14.3
2019-03-02T03:08:03.420Z,14.3
2019-03-02T03:08:44.938Z,14.2
2019-03-02T03:09:33.970Z,14.3
2019-03-02T03:10:34.561Z,14.2
2019-03-02T03:11:15.175Z,14.2
2019-03-02T03:12:05.133Z,14.2
2019-03-02T03:13:05.832Z,14.2
2019-03-02T03:13:49.370Z,14.2
2019-03-02T03:14:34.678Z,14.2
2019-03-02T03:15:25.247Z,14.1
2019-03-02T03:16:24.923Z,14.2
2019-03-02T03:17:04.929Z,14.2
2019-03-02T03:17:54.414Z,14.2
2019-03-02T03:18:55.395Z,14.2
2019-03-02T03:19:39.749Z,14.2
2019-03-02T03:20:24.118Z,14.2
2019-03-02T03:21:14.871Z,14.2
2019-03-02T03:22:16.048Z,14.2
2019-03-02T03:22:55.236Z,14.1
2019-03-02T03:23:45.398Z,14.1
2019-03-02T03:24:44.688Z,14.1
2019-03-02T03:25:27.396Z,14.1
2019-03-02T03:26:15.234Z,14.1
2019-03-02T03:27:15.316Z,14.2
2019-03-02T03:28:00.786Z,14.2
2019-03-02T03:28:45.125Z,14.2
2019-03-02T03:29:35.517Z,14.2
2019-03-02T03:30:46.269Z,14.2
2019-03-02T03:31:39.022Z,14.3
2019-03-02T03:32:19.703Z,14.2
2019-03-02T03:33:08.237Z,14.2
2019-03-02T03:33:54.921Z,14.2
2019-03-02T03:34:39.758Z,14.2
2019-03-02T03:35:28.259Z,14.2
2019-03-02T03:36:15.677Z,14.2
2019-03-02T03:37:16.443Z,14.2
2019-03-02T03:37:59.668Z,14.2
2019-03-02T03:38:46.382Z,14.2
2019-03-02T03:39:36.150Z,14.2
2019-03-02T03:40:33.727Z,14.2
2019-03-02T03:41:17.091Z,14.2
2019-03-02T03:42:07.242Z,14.2
2019-03-02T03:43:07.344Z,14.2
2019-03-02T03:43:51.560Z,14.2
2019-03-02T03:44:36.414Z,14.2
2019-03-02T03:45:30.251Z,14.3
2019-03-02T03:46:27.803Z,14.2
2019-03-02T03:47:09.664Z,14.2
2019-03-02T03:47:57.878Z,14.2
2019-03-02T03:48:46.209Z,14.2
2019-03-02T03:49:42.908Z,14.2
2019-03-02T03:50:27.795Z,14.3
2019-03-02T03:51:17.468Z,14.2
2019-03-02T03:52:17.797Z,14.2
2019-03-02T03:52:58.984Z,14.2
2019-03-02T03:53:48.354Z,14.2
2019-03-02T03:54:47.546Z,14.2
2019-03-02T03:55:35.209Z,14.2
2019-03-02T03:56:17.884Z,14.2
2019-03-02T03:57:08.175Z,14.2
2019-03-02T03:58:09.494Z,14.1
2019-03-02T03:58:49.814Z,14.2
2019-03-02T03:59:38.306Z,14.2
2019-03-02T04:00:28.126Z,14.2
2019-03-02T04:01:26.617Z,14.2
2019-03-02T04:02:08.501Z,14.2
2019-03-02T04:02:57.804Z,14.2
2019-03-02T04:03:57.859Z,14.2
2019-03-02T04:04:39.339Z,14.2
2019-03-02T04:05:29.047Z,14.1
2019-03-02T04:06:23.288Z,14.2
2019-03-02T04:07:15.271Z,14.2
2019-03-02T04:07:59.668Z,14.2
2019-03-02T04:08:48.772Z,14.2
2019-03-02T04:09:48.080Z,14.1
2019-03-02T04:10:35.759Z,14.1
2019-03-02T04:11:18.706Z,14.1
2019-03-02T04:12:12.098Z,14.2
2019-03-02T04:13:10.001Z,14.2
2019-03-02T04:13:54.038Z,14.2
2019-03-02T04:14:38.949Z,14.1
2019-03-02T04:15:29.150Z,14.2
2019-03-02T04:16:30.355Z,14.2
2019-03-02T04:17:10.843Z,14.2
2019-03-02T04:17:59.959Z,14.1
2019-03-02T04:19:00.399Z,14.1
2019-03-02T04:19:43.023Z,14.1
2019-03-02T04:20:29.433Z,14.2
2019-03-02T04:21:30.425Z,14.2
2019-03-02T04:22:16.140Z,14.2
2019-03-02T04:23:00.428Z,14.2
2019-03-02T04:23:49.234Z,14.3
2019-03-02T04:24:48.192Z,14.2
2019-03-02T04:25:30.358Z,14.3
2019-03-02T04:26:20.195Z,14.2
2019-03-02T04:27:19.660Z,14.2
2019-03-02T04:28:02.681Z,14.2
2019-03-02T04:28:50.903Z,14.2
2019-03-02T04:29:55.812Z,14.1
2019-03-02T04:30:41.134Z,14.1
2019-03-02T04:31:20.274Z,14.1
2019-03-02T04:32:10.320Z,14.1
2019-03-02T04:33:10.010Z,14.1
2019-03-02T04:33:51.087Z,14.1
2019-03-02T04:34:40.182Z,14.1
2019-03-02T04:35:38.963Z,14.1
2019-03-02T04:36:21.232Z,14.1
2019-03-02T04:37:10.640Z,14.1
2019-03-02T04:38:09.590Z,14.1
2019-03-02T04:38:50.589Z,14.2
2019-03-02T04:39:41.389Z,14.2
2019-03-02T04:40:35.343Z,14.2
2019-03-02T04:41:21.476Z,14.2
2019-03-02T04:42:16.868Z,14.2
2019-03-02T04:43:01.011Z,14.2
2019-03-02T04:43:58.009Z,14.2
2019-03-02T04:44:40.571Z,14.2
2019-03-02T04:45:31.795Z,14.2
2019-03-02T04:46:24.151Z,14.2
2019-03-02T04:47:10.789Z,14.2
2019-03-02T04:48:09.740Z,14.2
2019-03-02T04:48:51.431Z,14.2
2019-03-02T04:49:40.726Z,14.2
2019-03-02T04:50:35.673Z,14.2
2019-03-02T04:51:20.898Z,14.2
2019-03-02T04:52:17.893Z,14.2
2019-03-02T04:53:02.004Z,14.2
2019-03-02T04:53:51.241Z,14.2
2019-03-02T04:54:46.098Z,14.2
2019-03-02T04:55:31.922Z,14.2
2019-03-02T04:56:28.090Z,14.2
2019-03-02T04:57:11.203Z,14.2
2019-03-02T04:58:01.056Z,14.2
2019-03-02T04:58:55.330Z,14.2
2019-03-02T04:59:42.475Z,14.2
2019-03-02T05:00:39.066Z,14.2
2019-03-02T05:01:22.069Z,14.2
2019-03-02T05:02:12.078Z,14.2
2019-03-02T05:03:03.830Z,14.2
2019-03-02T05:03:58.853Z,14.2
2019-03-02T05:04:43.076Z,14.2
2019-03-02T05:05:32.337Z,14.2
2019-03-02T05:06:26.207Z,14.2
2019-03-02T05:07:11.862Z,14.2
2019-03-02T05:08:09.725Z,14.1
2019-03-02T05:08:53.106Z,14.1
2019-03-02T05:09:42.602Z,14.2
2019-03-02T05:10:36.729Z,14.2
2019-03-02T05:11:22.492Z,14.1
2019-03-02T05:12:19.196Z,14.2
2019-03-02T05:13:02.445Z,14.2
2019-03-02T05:13:52.132Z,14.3
2019-03-02T05:14:47.932Z,14.2
2019-03-02T05:15:33.292Z,14.2
2019-03-02T05:16:30.179Z,14.2
2019-03-02T05:17:16.541Z,14.3
2019-03-02T05:18:02.935Z,14.3
2019-03-02T05:19:00.717Z,14.3
2019-03-02T05:19:43.037Z,14.2
2019-03-02T05:20:37.583Z,14.2
2019-03-02T05:21:23.438Z,14.2
2019-03-02T05:22:19.981Z,14.2
2019-03-02T05:23:03.999Z,14.2
2019-03-02T05:23:52.790Z,14.2
2019-03-02T05:24:50.196Z,14.2
2019-03-02T05:25:34.288Z,14.2
2019-03-02T05:26:24.501Z,14.2
2019-03-02T05:27:13.892Z,14.2
2019-03-02T05:28:10.991Z,14.2
2019-03-02T05:28:54.484Z,14.2
2019-03-02T05:29:43.904Z,14.2
2019-03-02T05:30:38.314Z,14.3
2019-03-02T05:31:24.125Z,14.3
2019-03-02T05:32:23.280Z,14.2
2019-03-02T05:33:04.758Z,14.2
2019-03-02T05:33:53.951Z,14.2
2019-03-02T05:34:48.209Z,14.2
2019-03-02T05:35:33.969Z,14.2
2019-03-02T05:36:32.056Z,14.1
2019-03-02T05:37:14.889Z,14.1
2019-03-02T05:38:04.203Z,14.1
2019-03-02T05:38:54.938Z,14.1
2019-03-02T05:39:45.263Z,14.1
2019-03-02T05:40:37.293Z,14.2
2019-03-02T05:41:24.613Z,14.1
2019-03-02T05:42:22.120Z,14.1
2019-03-02T05:43:04.740Z,14.1
2019-03-02T05:43:54.231Z,14.1
2019-03-02T05:44:46.697Z,14.1
2019-03-02T05:45:35.203Z,14.1
2019-03-02T05:46:33.048Z,14.1
2019-03-02T05:47:14.770Z,14.1
2019-03-02T05:48:13.545Z,14.2
2019-03-02T05:48:54.265Z,14.1
2019-03-02T05:49:45.963Z,14.1
2019-03-02T05:50:39.015Z,14.1
2019-03-02T05:51:25.803Z,14.1
2019-03-02T05:52:21.802Z,14.1
2019-03-02T05:53:04.875Z,14.1
2019-03-02T05:53:55.359Z,14.1
2019-03-02T05:54:49.754Z,14.1
2019-03-02T05:55:36.617Z,14.1
2019-03-02T05:56:32.455Z,14.1
2019-03-02T05:57:16.202Z,14.1
2019-03-02T05:58:06.827Z,14.2
2019-03-02T05:58:59.162Z,14.1
2019-03-02T05:59:45.825Z,14.2
2019-03-02T06:00:44.082Z,14.2
2019-03-02T06:01:26.219Z,14.2
2019-03-02T06:02:23.322Z,14.2
2019-03-02T06:03:06.057Z,14.2
2019-03-02T06:05:54.052Z,14.1
2019-03-02T06:06:43.797Z,14.2
2019-03-02T06:07:33.989Z,14.2
2019-03-02T06:08:24.387Z,14.2
2019-03-02T06:09:20.449Z,14.2
2019-03-02T06:10:03.592Z,14.2
2019-03-02T06:10:57.996Z,14.2
2019-03-02T06:11:48.290Z,14.2
2019-03-02T06:12:34.184Z,14.3
2019-03-02T06:13:34.357Z,14.2
2019-03-02T06:14:15.454Z,14.2
2019-03-02T06:15:12.072Z,14.3
2019-03-02T06:15:54.831Z,14.2
2019-03-02T06:16:44.886Z,14.2
2019-03-02T06:17:40.794Z,14.3
2019-03-02T06:18:24.736Z,14.2
2019-03-02T06:19:24.635Z,14.2
2019-03-02T06:20:07.996Z,14.3
2019-03-02T06:20:55.061Z,14.2
2019-03-02T06:21:51.601Z,14.3
2019-03-02T06:22:35.051Z,14.3
2019-03-02T06:23:32.666Z,14.3
2019-03-02T06:24:17.866Z,14.2
2019-03-02T06:25:05.584Z,14.3
2019-03-02T06:26:04.304Z,14.3
2019-03-02T06:26:44.282Z,14.2
2019-03-02T06:27:35.435Z,14.3
2019-03-02T06:28:30.858Z,14.3
2019-03-02T06:29:16.036Z,14.3
2019-03-02T06:30:12.375Z,14.3
2019-03-02T06:30:55.677Z,14.3
2019-03-02T06:31:46.226Z,14.3
2019-03-02T06:32:41.149Z,14.3
2019-03-02T06:33:26.082Z,14.3
2019-03-02T06:34:22.882Z,14.3
2019-03-02T06:35:05.756Z,14.3
2019-03-02T06:35:56.246Z,14.3
2019-03-02T06:36:53.211Z,14.3
2019-03-02T06:37:36.195Z,14.3
2019-03-02T06:38:33.069Z,14.3
2019-03-02T06:39:16.515Z,14.3
2019-03-02T06:40:06.535Z,14.3
2019-03-02T06:41:02.038Z,14.3
2019-03-02T06:41:45.991Z,14.3
2019-03-02T06:42:36.997Z,14.3
2019-03-02T06:43:30.170Z,14.3
2019-03-02T06:44:16.252Z,14.3
2019-03-02T06:45:13.718Z,14.3
2019-03-02T06:45:56.185Z,14.3
2019-03-02T06:46:46.887Z,14.3
2019-03-02T06:47:40.257Z,14.3
2019-03-02T06:48:26.432Z,14.3
2019-03-02T06:49:23.320Z,14.3
2019-03-02T06:50:08.269Z,14.3
2019-03-02T06:50:56.828Z,14.3
2019-03-02T06:51:54.351Z,14.3
2019-03-02T06:52:36.672Z,14.3
2019-03-02T06:53:27.607Z,14.3
2019-03-02T06:54:23.951Z,14.3
2019-03-02T06:55:07.949Z,14.3
2019-03-02T06:56:06.201Z,14.3
2019-03-02T06:56:55.002Z,14.3
2019-03-02T06:57:38.318Z,14.3
2019-03-02T06:58:37.276Z,14.3
2019-03-02T06:59:16.844Z,14.3
2019-03-02T07:00:10.611Z,14.3
2019-03-02T07:00:57.903Z,14.3
2019-03-02T07:01:50.072Z,14.3
2019-03-02T07:02:43.071Z,14.3
2019-03-02T07:03:27.906Z,14.3
2019-03-02T07:05:54.961Z,14.3
2019-03-02T07:06:50.200Z,14.3
2019-03-02T07:07:33.941Z,14.3
2019-03-02T07:08:29.416Z,14.3
2019-03-02T07:09:17.941Z,14.3
2019-03-02T07:10:04.318Z,14.3
2019-03-02T07:11:00.791Z,14.3
2019-03-02T07:11:44.268Z,14.3
2019-03-02T07:12:34.061Z,14.3
2019-03-02T07:13:29.308Z,14.3
2019-03-02T07:14:17.155Z,14.3
2019-03-02T07:15:10.871Z,14.3
2019-03-02T07:15:55.100Z,14.3
2019-03-02T07:16:44.761Z,14.3
2019-03-02T07:17:38.590Z,14.3
2019-03-02T07:18:24.978Z,14.3
2019-03-02T07:19:21.800Z,14.3
2019-03-02T07:20:03.862Z,14.3
2019-03-02T07:20:54.197Z,14.3
2019-03-02T07:21:49.281Z,14.4
2019-03-02T07:22:34.498Z,14.3
2019-03-02T07:23:30.380Z,14.3
2019-03-02T07:24:14.926Z,14.3
2019-03-02T07:25:14.558Z,14.3
2019-03-02T07:25:54.514Z,14.3
2019-03-02T07:26:45.530Z,14.3
2019-03-02T07:27:37.920Z,14.3
2019-03-02T07:28:24.893Z,14.3
2019-03-02T07:29:21.750Z,14.3
2019-03-02T07:30:05.318Z,14.3
2019-03-02T07:30:55.403Z,14.3
2019-03-02T07:31:45.977Z,14.3
2019-03-02T07:32:36.248Z,14.3
2019-03-02T07:33:26.380Z,14.3
2019-03-02T07:34:16.089Z,14.3
2019-03-02T07:35:08.050Z,14.3
2019-03-02T07:36:04.250Z,14.3
2019-03-02T07:36:45.974Z,14.3
2019-03-02T07:37:44.033Z,14.3
2019-03-02T07:38:28.760Z,14.3
2019-03-02T07:39:16.252Z,14.3
2019-03-02T07:40:13.805Z,14.3
2019-03-02T07:40:56.837Z,14.3
2019-03-02T07:41:46.362Z,14.3
2019-03-02T07:42:42.380Z,14.3
2019-03-02T07:43:25.732Z,14.3
2019-03-02T07:44:24.070Z,14.3
2019-03-02T07:45:06.744Z,14.3
2019-03-02T07:45:56.920Z,14.3
2019-03-02T07:46:54.396Z,14.3
2019-03-02T07:47:36.664Z,14.3
2019-03-02T07:48:26.037Z,14.3
2019-03-02T07:49:21.804Z,14.3
2019-03-02T07:50:05.857Z,14.3
2019-03-02T07:50:56.629Z,14.4
2019-03-02T07:51:50.101Z,14.4
2019-03-02T07:52:37.678Z,14.4
2019-03-02T07:53:35.691Z,14.3
2019-03-02T07:54:17.218Z,14.3
2019-03-02T07:55:07.088Z,14.3
2019-03-02T07:56:05.078Z,14.4
2019-03-02T07:56:47.529Z,14.4
2019-03-02T07:57:36.886Z,14.4
2019-03-02T07:58:28.998Z,14.4
2019-03-02T07:59:17.872Z,14.4
2019-03-02T08:00:13.813Z,14.4
2019-03-02T08:00:57.918Z,14.4
2019-03-02T08:01:55.448Z,14.4
2019-03-02T08:02:37.448Z,14.3
2019-03-02T08:03:29.301Z,14.4
2019-03-02T08:04:20.602Z,14.4
2019-03-02T08:05:10.862Z,14.3
2019-03-02T08:06:01.163Z,14.4
2019-03-02T08:06:48.358Z,14.4
2019-03-02T08:07:47.103Z,14.4
2019-03-02T08:08:28.210Z,14.4
2019-03-02T08:09:21.888Z,14.4
2019-03-02T08:10:11.290Z,14.4
2019-03-02T08:10:59.220Z,14.4
2019-03-02T08:11:55.382Z,14.4
2019-03-02T08:12:37.751Z,14.4
2019-03-02T08:13:29.129Z,14.4
2019-03-02T08:14:22.887Z,14.4
2019-03-02T08:15:08.495Z,14.4
2019-03-02T08:16:09.125Z,14.4
2019-03-02T08:16:49.380Z,14.4
2019-03-02T08:17:39.202Z,14.3
2019-03-02T08:18:35.967Z,14.3
2019-03-02T08:19:19.042Z,14.3
2019-03-02T08:20:08.647Z,14.3
2019-03-02T08:21:07.548Z,14.3
2019-03-02T08:21:48.944Z,14.3
2019-03-02T08:22:47.025Z,14.3
2019-03-02T08:23:28.692Z,14.3
2019-03-02T08:24:19.602Z,14.3
2019-03-02T08:25:09.147Z,14.3
2019-03-02T08:25:59.419Z,14.3
2019-03-02T08:26:49.782Z,14.3
2019-03-02T08:27:43.644Z,14.3
2019-03-02T08:28:30.743Z,14.3
2019-03-02T08:29:26.425Z,14.3
2019-03-02T08:30:10.299Z,14.2
2019-03-02T08:30:59.289Z,14.2
2019-03-02T08:31:53.377Z,14.3
2019-03-02T08:32:39.939Z,14.2
2019-03-02T08:33:35.702Z,14.2
2019-03-02T08:34:20.551Z,14.2
2019-03-02T08:35:09.605Z,14.2
2019-03-02T08:35:59.659Z,14.2
2019-03-02T08:36:58.821Z,14.2
2019-03-02T08:37:40.536Z,14.2
2019-03-02T08:38:29.564Z,14.3
2019-03-02T08:39:22.101Z,14.3
2019-03-02T08:40:10.771Z,14.2
2019-03-02T08:41:07.318Z,14.3
2019-03-02T08:41:50.561Z,14.2
2019-03-02T08:42:39.768Z,14.2
2019-03-02T08:43:31.279Z,14.2
2019-03-02T08:44:26.505Z,14.2
2019-03-02T08:45:10.831Z,14.2
2019-03-02T08:46:07.365Z,14.3
2019-03-02T08:46:50.895Z,14.3
2019-03-02T08:47:41.216Z,14.3
2019-03-02T08:48:31.270Z,14.3
2019-03-02T08:49:20.321Z,14.3
2019-03-02T08:50:18.781Z,14.3
2019-03-02T08:51:01.715Z,14.3
2019-03-02T08:51:51.493Z,14.3
2019-03-02T08:52:40.273Z,14.3
2019-03-02T08:53:30.585Z,14.3
2019-03-02T08:54:28.635Z,14.3
2019-03-02T08:55:13.365Z,14.3
2019-03-02T08:56:00.525Z,14.3
2019-03-02T08:56:56.375Z,14.3
2019-03-02T08:57:42.543Z,14.3
2019-03-02T08:58:32.373Z,14.3
2019-03-02T08:59:21.505Z,14.3
2019-03-02T09:00:11.788Z,14.3
2019-03-02T09:01:01.981Z,14.3
2019-03-02T09:01:59.720Z,14.3
2019-03-02T09:02:42.624Z,14.4
2019-03-02T09:03:41.349Z,14.5
2019-03-02T09:04:23.002Z,14.6
2019-03-02T09:05:12.190Z,14.7
2019-03-02T09:06:14.018Z,14.7
2019-03-02T09:06:51.549Z,14.8
2019-03-02T09:07:42.398Z,14.8
2019-03-02T09:08:32.497Z,14.9
2019-03-02T09:09:24.448Z,14.9
2019-03-02T09:10:18.062Z,15
2019-03-02T09:11:02.329Z,15
2019-03-02T09:11:53.424Z,15
2019-03-02T09:12:43.304Z,15.1
2019-03-02T09:13:39.658Z,15.1
2019-03-02T09:14:23.662Z,15.1
2019-03-02T09:15:13.465Z,15.1
2019-03-02T09:16:11.614Z,15.1
2019-03-02T09:16:53.316Z,15.2
2019-03-02T09:17:43.872Z,15.2
2019-03-02T09:18:52.897Z,15.2
2019-03-02T09:19:31.741Z,15.2
2019-03-02T09:20:15.791Z,15.2
2019-03-02T09:21:08.891Z,15.3
2019-03-02T09:21:59.041Z,15.3
2019-03-02T09:22:43.795Z,15.3
2019-03-02T09:23:40.533Z,15.3
2019-03-02T09:24:24.736Z,15.3
2019-03-02T09:25:13.208Z,15.3
2019-03-02T09:26:10.149Z,15.3
2019-03-02T09:26:52.481Z,15.3
2019-03-02T09:27:42.344Z,15.3
2019-03-02T09:28:32.331Z,15.3
2019-03-02T09:29:23.708Z,15.4
2019-03-02T09:30:14.213Z,15.4
2019-03-02T09:31:09.351Z,15.4
2019-03-02T09:31:54.766Z,15.4
2019-03-02T09:32:50.835Z,15.4
2019-03-02T09:33:36.611Z,15.4
2019-03-02T09:34:23.830Z,15.4
2019-03-02T09:35:21.288Z,15.4
2019-03-02T09:36:04.203Z,15.4
2019-03-02T09:36:55.058Z,15.4
2019-03-02T09:37:50.751Z,15.4
2019-03-02T09:38:34.952Z,15.5
2019-03-02T09:39:26.463Z,15.4
2019-03-02T09:40:21.250Z,15.5
2019-03-02T09:41:04.242Z,15.5
2019-03-02T09:42:01.435Z,15.5
2019-03-02T09:42:49.217Z,15.5
2019-03-02T09:43:34.955Z,15.5
2019-03-02T09:44:25.020Z,15.5
2019-03-02T09:45:19.995Z,15.5
2019-03-02T09:46:04.570Z,15.5
2019-03-02T09:46:55.505Z,15.4
2019-03-02T09:47:56.447Z,15.5
2019-03-02T09:48:37.982Z,15.5
2019-03-02T09:49:25.699Z,15.5
2019-03-02T09:50:23.649Z,15.5
2019-03-02T09:51:05.422Z,15.5
2019-03-02T09:51:58.869Z,15.5
2019-03-02T09:52:48.671Z,15.5
2019-03-02T09:53:36.430Z,15.5
2019-03-02T09:54:25.704Z,15.5
2019-03-02T09:55:24.662Z,15.5
2019-03-02T09:56:06.867Z,15.4
2019-03-02T09:56:55.544Z,15.5
2019-03-02T09:57:55.496Z,15.5
2019-03-02T09:58:36.629Z,15.5
2019-03-02T09:59:25.154Z,15.5
2019-03-02T10:00:28.412Z,15.5
2019-03-02T10:01:11.896Z,15.5
2019-03-02T10:01:57.504Z,15.4
2019-03-02T10:02:53.589Z,15.5
2019-03-02T10:03:37.579Z,15.5
2019-03-02T10:04:26.355Z,15.5
2019-03-02T10:07:05.526Z,15.4
2019-03-02T10:07:46.071Z,15.4
2019-03-02T10:08:33.531Z,15.4
2019-03-02T10:09:32.141Z,15.4
2019-03-02T10:10:13.934Z,15.4
2019-03-02T10:11:11.291Z,15.4
2019-03-02T10:11:54.593Z,15.4
2019-03-02T10:12:54.976Z,15.4
2019-03-02T10:13:34.749Z,15.4
2019-03-02T10:14:35.003Z,15.4
2019-03-02T10:15:13.696Z,15.4
2019-03-02T10:16:12.884Z,15.4
2019-03-02T10:16:54.095Z,15.4
2019-03-02T10:17:47.786Z,15.4
2019-03-02T10:18:34.834Z,15.5
2019-03-02T10:19:32.378Z,15.5
2019-03-02T10:20:15.163Z,15.5
2019-03-02T10:21:03.945Z,15.6
2019-03-02T10:21:56.228Z,15.6
2019-03-02T10:22:44.811Z,15.6
2019-03-02T10:23:35.102Z,15.6
2019-03-02T10:24:26.468Z,15.6
2019-03-02T10:25:15.840Z,15.6
2019-03-02T10:26:13.382Z,15.6
2019-03-02T10:26:55.150Z,15.6
2019-03-02T10:27:44.174Z,15.7
2019-03-02T10:28:41.132Z,15.7
2019-03-02T10:29:25.535Z,15.6
2019-03-02T10:30:14.822Z,15.7
2019-03-02T10:31:14.820Z,15.6
2019-03-02T10:31:54.956Z,15.6
2019-03-02T10:32:45.039Z,15.7
2019-03-02T10:33:40.215Z,15.7
2019-03-02T10:34:26.019Z,15.7
2019-03-02T10:35:21.752Z,15.7
2019-03-02T10:36:05.506Z,15.7
2019-03-02T10:36:56.075Z,15.7
2019-03-02T10:37:49.804Z,15.7
2019-03-02T10:38:38.492Z,15.7
2019-03-02T10:39:33.653Z,15.8
2019-03-02T10:40:17.266Z,15.8
2019-03-02T10:41:07.297Z,15.8
2019-03-02T10:42:07.072Z,15.8
2019-03-02T10:42:47.659Z,15.8
2019-03-02T10:43:36.841Z,15.8
2019-03-02T10:44:29.979Z,15.8
2019-03-02T10:45:15.536Z,15.8
2019-03-02T10:46:06.981Z,15.8
2019-03-02T10:46:57.465Z,15.8
2019-03-02T10:47:47.986Z,15.8
2019-03-02T10:48:36.889Z,15.8
2019-03-02T10:49:27.466Z,15.8
2019-03-02T10:50:26.366Z,15.8
2019-03-02T10:51:11.168Z,15.8
2019-03-02T10:51:56.593Z,15.8
2019-03-02T10:52:53.599Z,15.8
2019-03-02T10:53:37.216Z,15.8
2019-03-02T10:54:27.566Z,15.8
2019-03-02T10:55:20.909Z,15.8
2019-03-02T10:56:10.241Z,15.8
2019-03-02T10:57:04.423Z,15.8
2019-03-02T10:57:47.276Z,15.8
2019-03-02T10:58:45.603Z,15.8
2019-03-02T10:59:27.639Z,15.8
2019-03-02T11:00:17.698Z,15.8
2019-03-02T11:01:15.497Z,15.8
2019-03-02T11:01:58.370Z,15.8
2019-03-02T11:02:47.668Z,15.8
2019-03-02T11:03:40.483Z,15.8
2019-03-02T11:04:27.795Z,15.8
2019-03-02T11:05:24.020Z,15.8
2019-03-02T11:06:08.874Z,15.8
2019-03-02T11:06:58.063Z,15.8
2019-03-02T11:07:57.504Z,15.8
2019-03-02T11:08:38.370Z,15.8
2019-03-02T11:09:30.005Z,15.8
2019-03-02T11:10:26.064Z,15.8
2019-03-02T11:11:08.715Z,15.8
2019-03-02T11:11:57.278Z,15.8
2019-03-02T11:12:52.565Z,15.8
2019-03-02T11:13:38.825Z,15.8